sensor_id;sensor_type;location;lat;lon;timestamp;pressure;altitude;pressure_sealevel;temperature
30765;BMP180;494;48.744;10.106;2023-11-19T00:01:13;95584.00;;;8.40
30765;BMP180;494;48.744;10.106;2023-11-19T00:03:51;95547.00;;;8.40
30765;BMP180;494;48.744;10.106;2023-11-19T00:09:10;95542.00;;;7.70
30765;BMP180;494;48.744;10.106;2023-11-19T00:11:40;95604.00;;;7.10
30765;BMP180;494;48.744;10.106;2023-11-19T00:14:08;95521.00;;;8.30
30765;BMP180;494;48.744;10.106;2023-11-19T00:16:41;95532.00;;;7.50
30765;BMP180;494;48.744;10.106;2023-11-19T00:19:12;95577.00;;;8.30
30765;BMP180;494;48.744;10.106;2023-11-19T00:22:01;95569.00;;;8.40
30765;BMP180;494;48.744;10.106;2023-11-19T00:24:47;95577.00;;;8.40
30765;BMP180;494;48.744;10.106;2023-11-19T00:27:45;95498.00;;;8.50
30765;BMP180;494;48.744;10.106;2023-11-19T00:30:30;95586.00;;;8.60
30765;BMP180;494;48.744;10.106;2023-11-19T00:33:05;95523.00;;;8.70
30765;BMP180;494;48.744;10.106;2023-11-19T00:35:44;95501.00;;;8.60
30765;BMP180;494;48.744;10.106;2023-11-19T00:38:25;95050.00;;;8.70
30765;BMP180;494;48.744;10.106;2023-11-19T00:40:56;95485.00;;;8.60
30765;BMP180;494;48.744;10.106;2023-11-19T00:43:25;95578.00;;;8.70
30765;BMP180;494;48.744;10.106;2023-11-19T00:46:00;95473.00;;;7.80
30765;BMP180;494;48.744;10.106;2023-11-19T00:48:39;95586.00;;;8.90
30765;BMP180;494;48.744;10.106;2023-11-19T00:51:21;95546.00;;;8.90
30765;BMP180;494;48.744;10.106;2023-11-19T00:53:53;95058.00;;;8.80
30765;BMP180;494;48.744;10.106;2023-11-19T00:57:19;95491.00;;;8.70
30765;BMP180;494;48.744;10.106;2023-11-19T01:03:41;95469.00;;;8.00
30765;BMP180;494;48.744;10.106;2023-11-19T01:06:12;95531.00;;;8.80
30765;BMP180;494;48.744;10.106;2023-11-19T01:08:44;95214.00;;;8.90
30765;BMP180;494;48.744;10.106;2023-11-19T01:11:24;95469.00;;;8.70
30765;BMP180;494;48.744;10.106;2023-11-19T01:13:53;95583.00;;;8.80
30765;BMP180;494;48.744;10.106;2023-11-19T01:16:22;95536.00;;;8.90
30765;BMP180;494;48.744;10.106;2023-11-19T01:18:56;95226.00;;;9.00
30765;BMP180;494;48.744;10.106;2023-11-19T01:21:43;95105.00;;;9.10
30765;BMP180;494;48.744;10.106;2023-11-19T01:24:22;95449.00;;;8.30
30765;BMP180;494;48.744;10.106;2023-11-19T01:32:32;95166.00;;;8.00
30765;BMP180;494;48.744;10.106;2023-11-19T01:35:04;95447.00;;;9.30
30765;BMP180;494;48.744;10.106;2023-11-19T01:37:39;95439.00;;;9.20
30765;BMP180;494;48.744;10.106;2023-11-19T01:40:11;95331.00;;;9.40
30765;BMP180;494;48.744;10.106;2023-11-19T01:42:43;95478.00;;;9.50
30765;BMP180;494;48.744;10.106;2023-11-19T01:45:30;95428.00;;;9.30
30765;BMP180;494;48.744;10.106;2023-11-19T01:48:02;95416.00;;;9.40
30765;BMP180;494;48.744;10.106;2023-11-19T01:50:33;95253.00;;;9.40
30765;BMP180;494;48.744;10.106;2023-11-19T01:53:03;95448.00;;;9.50
30765;BMP180;494;48.744;10.106;2023-11-19T01:55:34;95419.00;;;9.30
30765;BMP180;494;48.744;10.106;2023-11-19T02:01:04;95419.00;;;9.40
30765;BMP180;494;48.744;10.106;2023-11-19T02:03:52;95412.00;;;9.20
30765;BMP180;494;48.744;10.106;2023-11-19T02:06:27;95335.00;;;9.30
30765;BMP180;494;48.744;10.106;2023-11-19T02:09:00;95470.00;;;9.30
30765;BMP180;494;48.744;10.106;2023-11-19T02:11:37;95369.00;;;8.90
30765;BMP180;494;48.744;10.106;2023-11-19T02:14:08;95245.00;;;9.10
30765;BMP180;494;48.744;10.106;2023-11-19T02:16:37;95301.00;;;9.20
30765;BMP180;494;48.744;10.106;2023-11-19T02:19:08;95480.00;;;8.60
30765;BMP180;494;48.744;10.106;2023-11-19T02:21:39;95485.00;;;9.30
30765;BMP180;494;48.744;10.106;2023-11-19T02:24:12;95479.00;;;8.00
30765;BMP180;494;48.744;10.106;2023-11-19T02:26:51;95515.00;;;9.10
30765;BMP180;494;48.744;10.106;2023-11-19T02:29:29;95499.00;;;9.20
30765;BMP180;494;48.744;10.106;2023-11-19T02:31:58;95412.00;;;8.90
30765;BMP180;494;48.744;10.106;2023-11-19T02:34:30;95470.00;;;8.50
30765;BMP180;494;48.744;10.106;2023-11-19T02:37:01;95364.00;;;9.00
30765;BMP180;494;48.744;10.106;2023-11-19T02:39:33;95392.00;;;8.90
30765;BMP180;494;48.744;10.106;2023-11-19T02:42:04;95359.00;;;8.90
30765;BMP180;494;48.744;10.106;2023-11-19T02:44:35;95388.00;;;8.50
30765;BMP180;494;48.744;10.106;2023-11-19T02:47:07;95453.00;;;8.90
30765;BMP180;494;48.744;10.106;2023-11-19T02:49:43;95490.00;;;8.90
30765;BMP180;494;48.744;10.106;2023-11-19T02:52:14;95507.00;;;9.00
30765;BMP180;494;48.744;10.106;2023-11-19T02:54:44;95396.00;;;9.00
30765;BMP180;494;48.744;10.106;2023-11-19T02:57:13;95284.00;;;8.80
30765;BMP180;494;48.744;10.106;2023-11-19T02:59:46;95213.00;;;8.60
30765;BMP180;494;48.744;10.106;2023-11-19T03:02:17;95301.00;;;9.00
30765;BMP180;494;48.744;10.106;2023-11-19T03:04:46;95459.00;;;8.90
30765;BMP180;494;48.744;10.106;2023-11-19T03:07:15;95440.00;;;9.20
30765;BMP180;494;48.744;10.106;2023-11-19T03:09:45;95458.00;;;9.10
30765;BMP180;494;48.744;10.106;2023-11-19T03:12:17;95395.00;;;9.00
30765;BMP180;494;48.744;10.106;2023-11-19T03:14:47;95440.00;;;9.30
30765;BMP180;494;48.744;10.106;2023-11-19T03:17:20;95437.00;;;8.60
30765;BMP180;494;48.744;10.106;2023-11-19T03:19:59;95344.00;;;9.40
30765;BMP180;494;48.744;10.106;2023-11-19T03:22:28;95375.00;;;8.90
30765;BMP180;494;48.744;10.106;2023-11-19T03:24:57;95404.00;;;8.60
30765;BMP180;494;48.744;10.106;2023-11-19T03:27:30;95163.00;;;9.20
30765;BMP180;494;48.744;10.106;2023-11-19T03:30:03;95420.00;;;10.00
30765;BMP180;494;48.744;10.106;2023-11-19T03:32:32;95435.00;;;9.90
30765;BMP180;494;48.744;10.106;2023-11-19T03:35:07;95179.00;;;10.40
30765;BMP180;494;48.744;10.106;2023-11-19T03:37:36;95411.00;;;10.20
30765;BMP180;494;48.744;10.106;2023-11-19T03:40:09;95131.00;;;10.80
30765;BMP180;494;48.744;10.106;2023-11-19T03:42:38;95454.00;;;10.60
30765;BMP180;494;48.744;10.106;2023-11-19T03:45:12;95367.00;;;10.80
30765;BMP180;494;48.744;10.106;2023-11-19T03:47:41;95242.00;;;10.50
30765;BMP180;494;48.744;10.106;2023-11-19T03:50:11;95264.00;;;10.80
30765;BMP180;494;48.744;10.106;2023-11-19T03:52:43;95380.00;;;10.10
30765;BMP180;494;48.744;10.106;2023-11-19T03:55:14;95326.00;;;11.30
30765;BMP180;494;48.744;10.106;2023-11-19T03:57:43;95377.00;;;11.30
30765;BMP180;494;48.744;10.106;2023-11-19T04:00:14;95434.00;;;11.10
30765;BMP180;494;48.744;10.106;2023-11-19T04:02:47;95463.00;;;11.10
30765;BMP180;494;48.744;10.106;2023-11-19T04:05:16;95100.00;;;11.10
30765;BMP180;494;48.744;10.106;2023-11-19T04:07:46;95441.00;;;11.40
30765;BMP180;494;48.744;10.106;2023-11-19T04:10:15;95362.00;;;11.50
30765;BMP180;494;48.744;10.106;2023-11-19T04:12:47;95314.00;;;10.70
30765;BMP180;494;48.744;10.106;2023-11-19T04:15:17;95423.00;;;11.40
30765;BMP180;494;48.744;10.106;2023-11-19T04:17:48;95230.00;;;11.50
30765;BMP180;494;48.744;10.106;2023-11-19T04:20:17;95305.00;;;11.30
30765;BMP180;494;48.744;10.106;2023-11-19T04:22:46;95243.00;;;11.80
30765;BMP180;494;48.744;10.106;2023-11-19T04:25:15;95407.00;;;11.80
30765;BMP180;494;48.744;10.106;2023-11-19T04:27:46;95460.00;;;12.10
30765;BMP180;494;48.744;10.106;2023-11-19T04:30:18;95310.00;;;12.10
30765;BMP180;494;48.744;10.106;2023-11-19T04:32:47;95416.00;;;12.10
30765;BMP180;494;48.744;10.106;2023-11-19T04:35:19;95278.00;;;12.20
30765;BMP180;494;48.744;10.106;2023-11-19T04:37:49;95403.00;;;11.90
30765;BMP180;494;48.744;10.106;2023-11-19T04:40:18;95350.00;;;11.90
30765;BMP180;494;48.744;10.106;2023-11-19T04:42:51;95432.00;;;12.20
30765;BMP180;494;48.744;10.106;2023-11-19T04:45:24;95152.00;;;11.60
30765;BMP180;494;48.744;10.106;2023-11-19T04:47:54;95070.00;;;12.20
30765;BMP180;494;48.744;10.106;2023-11-19T04:50:25;95407.00;;;12.10
30765;BMP180;494;48.744;10.106;2023-11-19T04:53:01;95425.00;;;11.90
30765;BMP180;494;48.744;10.106;2023-11-19T04:55:31;95218.00;;;12.10
30765;BMP180;494;48.744;10.106;2023-11-19T04:58:04;95291.00;;;12.20
30765;BMP180;494;48.744;10.106;2023-11-19T05:00:36;94903.00;;;11.30
30765;BMP180;494;48.744;10.106;2023-11-19T05:03:05;95432.00;;;12.30
30765;BMP180;494;48.744;10.106;2023-11-19T05:05:35;95343.00;;;12.20
30765;BMP180;494;48.744;10.106;2023-11-19T05:11:04;95485.00;;;12.40
30765;BMP180;494;48.744;10.106;2023-11-19T05:13:34;95293.00;;;12.40
30765;BMP180;494;48.744;10.106;2023-11-19T05:16:06;95220.00;;;12.30
30765;BMP180;494;48.744;10.106;2023-11-19T05:18:39;95428.00;;;12.30
30765;BMP180;494;48.744;10.106;2023-11-19T05:21:10;95302.00;;;12.40
30765;BMP180;494;48.744;10.106;2023-11-19T05:23:39;95368.00;;;12.20
30765;BMP180;494;48.744;10.106;2023-11-19T05:26:09;95393.00;;;12.10
30765;BMP180;494;48.744;10.106;2023-11-19T05:28:38;95140.00;;;12.30
30765;BMP180;494;48.744;10.106;2023-11-19T05:31:09;95242.00;;;12.40
30765;BMP180;494;48.744;10.106;2023-11-19T05:33:39;95078.00;;;12.20
30765;BMP180;494;48.744;10.106;2023-11-19T05:36:08;95413.00;;;12.50
30765;BMP180;494;48.744;10.106;2023-11-19T05:38:41;95284.00;;;12.50
30765;BMP180;494;48.744;10.106;2023-11-19T05:41:09;95066.00;;;12.60
30765;BMP180;494;48.744;10.106;2023-11-19T05:43:41;95429.00;;;12.70
30765;BMP180;494;48.744;10.106;2023-11-19T05:46:11;95413.00;;;12.30
30765;BMP180;494;48.744;10.106;2023-11-19T05:48:43;95136.00;;;12.70
30765;BMP180;494;48.744;10.106;2023-11-19T05:51:15;95114.00;;;12.60
30765;BMP180;494;48.744;10.106;2023-11-19T05:53:44;95398.00;;;12.60
30765;BMP180;494;48.744;10.106;2023-11-19T05:56:16;95389.00;;;12.10
30765;BMP180;494;48.744;10.106;2023-11-19T05:58:49;95430.00;;;12.40
30765;BMP180;494;48.744;10.106;2023-11-19T06:01:24;95428.00;;;12.30
30765;BMP180;494;48.744;10.106;2023-11-19T06:03:53;95379.00;;;12.30
30765;BMP180;494;48.744;10.106;2023-11-19T06:06:23;95377.00;;;12.10
30765;BMP180;494;48.744;10.106;2023-11-19T06:08:56;95445.00;;;11.80
30765;BMP180;494;48.744;10.106;2023-11-19T06:11:40;95447.00;;;12.30
30765;BMP180;494;48.744;10.106;2023-11-19T06:14:14;95352.00;;;12.30
30765;BMP180;494;48.744;10.106;2023-11-19T06:16:44;95336.00;;;12.00
30765;BMP180;494;48.744;10.106;2023-11-19T06:19:13;95407.00;;;12.40
30765;BMP180;494;48.744;10.106;2023-11-19T06:21:42;95450.00;;;12.70
30765;BMP180;494;48.744;10.106;2023-11-19T06:24:20;95185.00;;;12.80
30765;BMP180;494;48.744;10.106;2023-11-19T06:26:49;95315.00;;;12.30
30765;BMP180;494;48.744;10.106;2023-11-19T06:29:18;95295.00;;;12.10
30765;BMP180;494;48.744;10.106;2023-11-19T06:31:49;95093.00;;;12.80
30765;BMP180;494;48.744;10.106;2023-11-19T06:34:21;95369.00;;;12.20
30765;BMP180;494;48.744;10.106;2023-11-19T06:36:51;95339.00;;;12.60
30765;BMP180;494;48.744;10.106;2023-11-19T06:39:22;95397.00;;;12.40
30765;BMP180;494;48.744;10.106;2023-11-19T06:41:54;95431.00;;;12.50
30765;BMP180;494;48.744;10.106;2023-11-19T06:44:22;95360.00;;;12.60
30765;BMP180;494;48.744;10.106;2023-11-19T06:46:53;95409.00;;;12.80
30765;BMP180;494;48.744;10.106;2023-11-19T06:49:22;95340.00;;;12.80
30765;BMP180;494;48.744;10.106;2023-11-19T06:51:52;95379.00;;;12.90
30765;BMP180;494;48.744;10.106;2023-11-19T06:54:22;95319.00;;;12.80
30765;BMP180;494;48.744;10.106;2023-11-19T06:56:50;95220.00;;;12.90
30765;BMP180;494;48.744;10.106;2023-11-19T06:59:19;95434.00;;;12.90
30765;BMP180;494;48.744;10.106;2023-11-19T07:01:48;95448.00;;;13.00
30765;BMP180;494;48.744;10.106;2023-11-19T07:04:20;95222.00;;;13.00
30765;BMP180;494;48.744;10.106;2023-11-19T07:06:49;95033.00;;;12.60
30765;BMP180;494;48.744;10.106;2023-11-19T07:09:19;95321.00;;;13.20
30765;BMP180;494;48.744;10.106;2023-11-19T07:11:49;95385.00;;;13.10
30765;BMP180;494;48.744;10.106;2023-11-19T07:14:23;95304.00;;;13.20
30765;BMP180;494;48.744;10.106;2023-11-19T07:16:51;95439.00;;;13.10
30765;BMP180;494;48.744;10.106;2023-11-19T07:19:24;95387.00;;;13.10
30765;BMP180;494;48.744;10.106;2023-11-19T07:21:53;95345.00;;;12.90
30765;BMP180;494;48.744;10.106;2023-11-19T07:24:22;95365.00;;;13.00
30765;BMP180;494;48.744;10.106;2023-11-19T07:26:51;95396.00;;;13.00
30765;BMP180;494;48.744;10.106;2023-11-19T07:29:21;95476.00;;;13.10
30765;BMP180;494;48.744;10.106;2023-11-19T07:31:53;95196.00;;;13.10
30765;BMP180;494;48.744;10.106;2023-11-19T07:34:22;95474.00;;;13.10
30765;BMP180;494;48.744;10.106;2023-11-19T07:36:53;95402.00;;;13.20
30765;BMP180;494;48.744;10.106;2023-11-19T07:39:24;95391.00;;;13.40
30765;BMP180;494;48.744;10.106;2023-11-19T07:41:53;95491.00;;;13.30
30765;BMP180;494;48.744;10.106;2023-11-19T07:44:22;95407.00;;;12.90
30765;BMP180;494;48.744;10.106;2023-11-19T07:46:51;95398.00;;;12.90
30765;BMP180;494;48.744;10.106;2023-11-19T07:49:22;95088.00;;;12.20
30765;BMP180;494;48.744;10.106;2023-11-19T07:51:52;95461.00;;;12.00
30765;BMP180;494;48.744;10.106;2023-11-19T07:54:23;95128.00;;;12.40
30765;BMP180;494;48.744;10.106;2023-11-19T07:56:55;95471.00;;;13.30
30765;BMP180;494;48.744;10.106;2023-11-19T07:59:24;95484.00;;;13.20
30765;BMP180;494;48.744;10.106;2023-11-19T08:01:53;95435.00;;;12.80
30765;BMP180;494;48.744;10.106;2023-11-19T08:04:21;95429.00;;;12.80
30765;BMP180;494;48.744;10.106;2023-11-19T08:06:50;95417.00;;;13.00
30765;BMP180;494;48.744;10.106;2023-11-19T08:09:22;95410.00;;;12.50
30765;BMP180;494;48.744;10.106;2023-11-19T08:11:51;95463.00;;;13.20
30765;BMP180;494;48.744;10.106;2023-11-19T08:14:26;95481.00;;;13.10
30765;BMP180;494;48.744;10.106;2023-11-19T08:16:55;95485.00;;;13.30
30765;BMP180;494;48.744;10.106;2023-11-19T08:19:24;95336.00;;;13.00
30765;BMP180;494;48.744;10.106;2023-11-19T08:21:56;95480.00;;;13.30
30765;BMP180;494;48.744;10.106;2023-11-19T08:24:27;95338.00;;;13.50
30765;BMP180;494;48.744;10.106;2023-11-19T08:26:56;95450.00;;;13.70
30765;BMP180;494;48.744;10.106;2023-11-19T08:29:27;95496.00;;;13.70
30765;BMP180;494;48.744;10.106;2023-11-19T08:31:56;95505.00;;;13.50
30765;BMP180;494;48.744;10.106;2023-11-19T08:34:27;95493.00;;;13.60
30765;BMP180;494;48.744;10.106;2023-11-19T08:36:56;95241.00;;;12.90
30765;BMP180;494;48.744;10.106;2023-11-19T08:39:27;95511.00;;;13.50
30765;BMP180;494;48.744;10.106;2023-11-19T08:41:56;95495.00;;;13.40
30765;BMP180;494;48.744;10.106;2023-11-19T08:44:26;95209.00;;;13.50
30765;BMP180;494;48.744;10.106;2023-11-19T08:46:56;95330.00;;;13.60
30765;BMP180;494;48.744;10.106;2023-11-19T08:49:26;95484.00;;;13.50
30765;BMP180;494;48.744;10.106;2023-11-19T08:51:58;95098.00;;;13.40
30765;BMP180;494;48.744;10.106;2023-11-19T08:54:33;95361.00;;;13.60
30765;BMP180;494;48.744;10.106;2023-11-19T08:57:04;95292.00;;;13.30
30765;BMP180;494;48.744;10.106;2023-11-19T08:59:36;95439.00;;;13.90
30765;BMP180;494;48.744;10.106;2023-11-19T09:02:06;95482.00;;;14.30
30765;BMP180;494;48.744;10.106;2023-11-19T09:04:35;95474.00;;;14.00
30765;BMP180;494;48.744;10.106;2023-11-19T09:07:04;95495.00;;;14.10
30765;BMP180;494;48.744;10.106;2023-11-19T09:09:35;95495.00;;;14.70
30765;BMP180;494;48.744;10.106;2023-11-19T09:12:06;95449.00;;;14.70
30765;BMP180;494;48.744;10.106;2023-11-19T09:14:35;95482.00;;;15.30
30765;BMP180;494;48.744;10.106;2023-11-19T09:17:05;95452.00;;;15.50
